Mills, Kentucky
Current Conditions -  °F | °C
As of 2:55 AM on Thursday 29 Jan 2015 (Local Time) from K1A6 Reporting Station
Clear Clear  
Wind Chill: 29°   Ceiling: Unl
Heat Index: 35°   Visibility: 10mi
Dew Point: 21°   Wind: 7mph
Humidity: 57%   Direction: 210°SSW
Pressure: 30.22"   Gusts: NA
Location:  36.8337°N, 83.7599°W
Report Text: K1A6 290755Z AUTO 21006KT 10SM CLR 01/M06 A3022 RMK AO2 T00141062
Loading
Personal Weather Stations






























Interactive Weather Map New forecast layout! Learn more

10-Day Weather Forecast

Advertisements
Track Severe Weather on mobile